createdAt,value
2019-04-16T00:00:30.982Z,99033.26
2019-04-16T00:02:59.945Z,99034.03
2019-04-16T00:05:30.117Z,99026.70
2019-04-16T00:08:26.494Z,99025.34
2019-04-16T00:10:41.323Z,99020.59
2019-04-16T00:13:17.548Z,99025.53
2019-04-16T00:15:46.044Z,99024.13
2019-04-16T00:18:18.469Z,99026.78
2019-04-16T00:20:55.228Z,99018.34
2019-04-16T00:23:34.457Z,99015.94
2019-04-16T00:26:02.920Z,99015.88
2019-04-16T00:28:31.492Z,99011.05
2019-04-16T00:30:59.966Z,99006.53
2019-04-16T00:33:28.441Z,99005.53
2019-04-16T00:35:56.985Z,99008.84
2019-04-16T00:38:25.476Z,99012.73
2019-04-16T00:40:53.956Z,99006.06
2019-04-16T00:43:22.457Z,99015.55
2019-04-16T00:45:50.992Z,99013.71
2019-04-16T00:48:19.499Z,99012.55
2019-04-16T00:50:48.012Z,99012.55
2019-04-16T00:53:16.531Z,99009.73
2019-04-16T00:55:45.805Z,99009.41
2019-04-16T00:58:14.482Z,99007.78
2019-04-16T01:00:42.993Z,99004.03
2019-04-16T01:03:13.136Z,99004.86
2019-04-16T01:05:41.634Z,99009.28
2019-04-16T01:08:10.122Z,99011.37
2019-04-16T01:10:38.587Z,99007.73
2019-04-16T01:13:07.102Z,99001.25
2019-04-16T01:15:35.556Z,99008.86
2019-04-16T01:18:08.098Z,99006.48
2019-04-16T01:20:35.084Z,99004.03
2019-04-16T01:23:03.620Z,99001.22
2019-04-16T01:25:32.121Z,99007.88
2019-04-16T01:28:02.221Z,98998.90
2019-04-16T01:30:36.324Z,99001.47
2019-04-16T01:33:07.134Z,98998.65
2019-04-16T01:35:39.940Z,99002.69
2019-04-16T01:38:27.829Z,98996.55
2019-04-16T01:41:06.063Z,99000.98
2019-04-16T01:43:34.607Z,98997.50
2019-04-16T01:46:03.107Z,98998.14
2019-04-16T01:48:31.580Z,99000.41
2019-04-16T01:51:00.078Z,98996.39
2019-04-16T01:53:28.543Z,99002.14
2019-04-16T01:55:57.752Z,98994.37
2019-04-16T01:58:26.286Z,98995.11
2019-04-16T02:00:54.844Z,98994.23
2019-04-16T02:03:23.413Z,98995.05
2019-04-16T02:05:54.559Z,98996.77
2019-04-16T02:08:22.257Z,98996.58
2019-04-16T02:10:50.792Z,98991.83
2019-04-16T02:13:19.363Z,98989.94
2019-04-16T02:15:50.614Z,98993.87
2019-04-16T02:18:18.104Z,98999.89
2019-04-16T02:20:46.571Z,99003.80
2019-04-16T02:23:16.739Z,99004.84
2019-04-16T02:25:45.497Z,98990.03
2019-04-16T02:28:14.014Z,98994.34
2019-04-16T02:30:42.573Z,98988.05
2019-04-16T02:33:11.174Z,98989.06
2019-04-16T02:35:39.621Z,98989.62
2019-04-16T02:38:12.271Z,98986.41
2019-04-16T02:40:38.789Z,98989.80
2019-04-16T02:43:08.167Z,98987.22
2019-04-16T02:45:37.002Z,98986.92
2019-04-16T02:48:05.802Z,98983.94
2019-04-16T02:50:42.020Z,98979.77
2019-04-16T02:53:28.081Z,98981.32
2019-04-16T02:55:58.295Z,98983.09
2019-04-16T02:58:33.981Z,98982.72
2019-04-16T03:01:00.411Z,98972.35
2019-04-16T03:03:30.521Z,98976.38
2019-04-16T03:06:01.043Z,98975.67
2019-04-16T03:08:29.272Z,98970.18
2019-04-16T03:10:57.946Z,98976.38
2019-04-16T03:13:26.955Z,98979.13
2019-04-16T03:15:57.251Z,98978.36
2019-04-16T03:18:27.505Z,98982.39
2019-04-16T03:20:56.648Z,98977.27
2019-04-16T03:23:25.267Z,98970.47
2019-04-16T03:25:53.733Z,98980.34
2019-04-16T03:28:23.582Z,98980.55
2019-04-16T03:30:52.515Z,98978.77
2019-04-16T03:33:20.958Z,98973.52
2019-04-16T03:35:49.525Z,98979.75
2019-04-16T03:38:17.995Z,98980.58
2019-04-16T03:40:46.483Z,98977.63
2019-04-16T03:43:14.996Z,98977.10
2019-04-16T03:45:43.463Z,98979.58
2019-04-16T03:48:11.964Z,98976.88
2019-04-16T03:50:40.458Z,98974.86
2019-04-16T03:53:08.947Z,98977.11
2019-04-16T03:55:37.415Z,98981.72
2019-04-16T03:58:07.190Z,98983.90
2019-04-16T04:00:36.296Z,98989.50
2019-04-16T04:03:05.023Z,98985.23
2019-04-16T04:05:34.898Z,98985.03
2019-04-16T04:08:04.921Z,98989.98
2019-04-16T04:10:36.800Z,98981.92
2019-04-16T04:13:05.129Z,98983.36
2019-04-16T04:15:33.825Z,98986.56
2019-04-16T04:18:02.273Z,98977.87
2019-04-16T04:20:31.183Z,98977.92
2019-04-16T04:22:59.674Z,98983.88
2019-04-16T04:25:28.264Z,98984.39
2019-04-16T04:27:56.763Z,98990.09
2019-04-16T04:30:28.703Z,98984.56
2019-04-16T04:32:56.154Z,98993.60
2019-04-16T04:35:24.626Z,98995.34
2019-04-16T04:37:53.094Z,98990.09
2019-04-16T04:40:21.574Z,98988.02
2019-04-16T04:42:50.220Z,98991.44
2019-04-16T04:45:18.716Z,98997.27
2019-04-16T04:47:51.003Z,98990.74
2019-04-16T04:50:17.571Z,98983.86
2019-04-16T04:52:46.873Z,98993.85
2019-04-16T04:55:15.643Z,98997.27
2019-04-16T04:57:44.196Z,98993.00
2019-04-16T05:00:13.803Z,98994.63
2019-04-16T05:02:43.645Z,98996.92
2019-04-16T05:05:16.738Z,98997.87
2019-04-16T05:07:45.233Z,99006.59
2019-04-16T05:10:13.870Z,99003.14
2019-04-16T05:12:42.873Z,98992.44
2019-04-16T05:15:11.795Z,99000.76
2019-04-16T05:17:40.268Z,99002.00
2019-04-16T05:20:09.087Z,99002.62
2019-04-16T05:22:37.564Z,99004.57
2019-04-16T05:25:06.663Z,99005.20
2019-04-16T05:27:40.249Z,99001.83
2019-04-16T05:30:07.115Z,99005.05
2019-04-16T05:32:35.632Z,99002.63
2019-04-16T05:35:10.273Z,99005.68
2019-04-16T05:37:37.782Z,99008.95
2019-04-16T05:40:08.547Z,99008.14
2019-04-16T05:42:37.011Z,99010.34
2019-04-16T05:45:07.363Z,99008.68
2019-04-16T05:47:36.007Z,99011.39
2019-04-16T05:50:05.615Z,99019.52
2019-04-16T05:52:35.737Z,99014.95
2019-04-16T05:55:23.352Z,99016.06
2019-04-16T05:57:57.966Z,99013.03
2019-04-16T06:00:33.847Z,99015.08
2019-04-16T06:03:02.348Z,99013.56
2019-04-16T06:05:30.935Z,99022.11
2019-04-16T06:08:10.318Z,99022.11
2019-04-16T06:10:39.252Z,99027.05
2019-04-16T06:13:24.661Z,99018.73
2019-04-16T06:16:00.883Z,99029.74
2019-04-16T06:18:43.071Z,99027.30
2019-04-16T06:21:29.676Z,99026.67
2019-04-16T06:24:16.259Z,99023.88
2019-04-16T06:27:02.935Z,99031.67
2019-04-16T06:29:38.798Z,99028.91
2019-04-16T06:32:14.861Z,99034.43
2019-04-16T06:34:57.071Z,99034.38
2019-04-16T06:37:45.775Z,99034.03
2019-04-16T06:40:32.877Z,99031.59
2019-04-16T06:43:05.622Z,99031.05
2019-04-16T06:45:37.049Z,99034.19
2019-04-16T06:48:12.854Z,99035.38
2019-04-16T06:50:42.274Z,99043.66
2019-04-16T06:53:12.460Z,99038.53
2019-04-16T06:55:58.492Z,99040.67
2019-04-16T06:58:50.861Z,99035.07
2019-04-16T07:01:29.063Z,99035.07
2019-04-16T07:03:59.961Z,99041.95
2019-04-16T07:06:39.371Z,99042.07
2019-04-16T07:09:25.805Z,99046.38
2019-04-16T07:11:54.946Z,99046.83
2019-04-16T07:14:23.644Z,99056.39
2019-04-16T07:16:52.100Z,99053.81
2019-04-16T07:19:20.586Z,99052.94
2019-04-16T07:21:49.965Z,99056.66
2019-04-16T07:24:22.152Z,99049.21
2019-04-16T07:26:49.024Z,99059.76
2019-04-16T07:29:31.562Z,99058.31
2019-04-16T07:32:03.093Z,99056.78
2019-04-16T07:34:48.496Z,99055.80
2019-04-16T07:37:24.314Z,99059.23
2019-04-16T07:40:10.710Z,99051.58
2019-04-16T07:42:51.856Z,99051.86
2019-04-16T07:45:18.123Z,99055.89
2019-04-16T07:47:57.437Z,99050.09
2019-04-16T07:50:44.815Z,99049.84
2019-04-16T07:53:31.107Z,99051.37
2019-04-16T07:56:04.222Z,99053.86
2019-04-16T07:58:32.757Z,99054.59
2019-04-16T08:01:01.624Z,99057.27
2019-04-16T08:03:30.168Z,99056.94
2019-04-16T08:05:58.722Z,99055.58
2019-04-16T08:08:27.194Z,99058.53
2019-04-16T08:10:55.998Z,99059.05
2019-04-16T08:13:26.925Z,99061.09
2019-04-16T08:15:57.044Z,99058.28
2019-04-16T08:18:27.326Z,99052.39
2019-04-16T08:21:01.668Z,99045.87
2019-04-16T08:23:27.721Z,99056.11
2019-04-16T08:26:03.529Z,99053.00
2019-04-16T08:28:28.151Z,99046.28
2019-04-16T08:30:56.637Z,99048.31
2019-04-16T08:33:28.223Z,99047.67
2019-04-16T08:35:55.337Z,99052.44
2019-04-16T08:38:26.043Z,99052.44
2019-04-16T08:40:54.102Z,99049.13
2019-04-16T08:43:22.653Z,99042.27
2019-04-16T08:45:51.194Z,99042.27
2019-04-16T08:48:19.696Z,99048.51
2019-04-16T08:50:49.500Z,99047.84
2019-04-16T08:53:18.029Z,99048.25
2019-04-16T08:55:46.530Z,99055.64
2019-04-16T08:58:15.010Z,99051.18
2019-04-16T09:00:46.675Z,99040.44
2019-04-16T09:03:15.603Z,99047.91
2019-04-16T09:05:44.236Z,99039.49
2019-04-16T09:08:14.339Z,99039.13
2019-04-16T09:10:44.610Z,99034.13
2019-04-16T09:13:17.671Z,99043.97
2019-04-16T09:15:46.244Z,99036.23
2019-04-16T09:18:25.366Z,99038.31
2019-04-16T09:20:53.941Z,99033.74
2019-04-16T09:23:22.856Z,99030.17
2019-04-16T09:26:11.275Z,99031.64
2019-04-16T09:28:31.058Z,99031.17
2019-04-16T09:31:12.749Z,99039.58
2019-04-16T09:33:42.857Z,99025.09
2019-04-16T09:36:27.977Z,99029.77
2019-04-16T09:38:58.091Z,99035.02
2019-04-16T09:41:31.221Z,99032.13
2019-04-16T09:44:01.066Z,99030.95
2019-04-16T09:46:49.544Z,99028.22
2019-04-16T09:49:00.339Z,99026.95
2019-04-16T09:51:28.894Z,99019.69
2019-04-16T09:53:57.360Z,99016.10
2019-04-16T09:56:32.142Z,99029.88
2019-04-16T09:59:07.159Z,99029.14
2019-04-16T10:01:37.486Z,99030.52
2019-04-16T10:04:07.626Z,99027.95
2019-04-16T10:06:36.100Z,99025.13
2019-04-16T10:09:06.860Z,99021.97
2019-04-16T10:11:35.848Z,99019.62
2019-04-16T10:14:05.607Z,99017.63
2019-04-16T10:16:34.189Z,99020.63
2019-04-16T10:19:07.638Z,99015.56
2019-04-16T10:21:32.940Z,99014.77
2019-04-16T10:24:15.101Z,99011.67
2019-04-16T10:26:45.276Z,99006.58
2019-04-16T10:29:15.462Z,99003.81
2019-04-16T10:31:45.011Z,99001.27
2019-04-16T10:34:13.493Z,99006.83
2019-04-16T10:36:42.013Z,99004.59
2019-04-16T10:39:21.157Z,99003.05
2019-04-16T10:42:02.858Z,98999.50
2019-04-16T10:44:37.951Z,98996.80
2019-04-16T10:47:12.554Z,98998.60
2019-04-16T10:49:42.912Z,98992.88
2019-04-16T10:52:29.459Z,98984.31
2019-04-16T10:55:02.305Z,98993.11
2019-04-16T10:57:32.447Z,98994.02
2019-04-16T11:00:14.679Z,98982.38
2019-04-16T11:02:50.565Z,98986.70
2019-04-16T11:05:35.764Z,98985.45
2019-04-16T11:08:07.547Z,98984.84
2019-04-16T11:10:35.207Z,98988.56
2019-04-16T11:13:05.361Z,98979.59
2019-04-16T11:15:33.846Z,98982.44
2019-04-16T11:18:02.308Z,98978.67
2019-04-16T11:20:30.900Z,98972.47
2019-04-16T11:22:59.445Z,98970.30
2019-04-16T11:25:29.021Z,98974.07
2019-04-16T11:27:57.497Z,98976.69
2019-04-16T11:30:31.291Z,98977.73
2019-04-16T11:33:00.059Z,98990.05
2019-04-16T11:35:28.539Z,98988.44
2019-04-16T11:37:57.055Z,98983.98
2019-04-16T11:40:25.674Z,98988.23
2019-04-16T11:42:54.261Z,98985.20
2019-04-16T11:45:22.864Z,98984.81
2019-04-16T11:47:51.359Z,98982.84
2019-04-16T11:50:19.911Z,98981.94
2019-04-16T11:52:48.381Z,98985.08
2019-04-16T11:55:16.976Z,98989.45
2019-04-16T11:57:45.497Z,98974.64
2019-04-16T12:00:16.176Z,98970.91
2019-04-16T12:03:01.411Z,98964.67
2019-04-16T12:05:37.240Z,98964.01
2019-04-16T12:08:19.633Z,98971.87
2019-04-16T12:11:02.014Z,98973.22
2019-04-16T12:13:35.045Z,98974.70
2019-04-16T12:16:08.372Z,98964.02
2019-04-16T12:18:53.465Z,98959.70
2019-04-16T12:21:32.599Z,98966.08
2019-04-16T12:24:18.648Z,98957.02
2019-04-16T12:26:48.927Z,98961.50
2019-04-16T12:29:30.855Z,98954.23
2019-04-16T12:32:03.607Z,98940.45
2019-04-16T12:34:32.054Z,98949.53
2019-04-16T12:37:20.263Z,98957.80
2019-04-16T12:40:06.629Z,98945.89
2019-04-16T12:42:41.206Z,98946.34
2019-04-16T12:45:18.039Z,98942.55
2019-04-16T12:47:48.181Z,98940.06
2019-04-16T12:50:24.623Z,98946.67
2019-04-16T12:53:03.407Z,98934.81
2019-04-16T12:55:42.902Z,98922.30
2019-04-16T12:58:20.176Z,98931.83
2019-04-16T13:01:06.516Z,98939.55
2019-04-16T13:03:36.656Z,98929.29
2019-04-16T13:06:06.908Z,98928.58
2019-04-16T13:08:37.084Z,98926.52
2019-04-16T13:11:10.015Z,98932.27
2019-04-16T13:13:42.839Z,98924.08
2019-04-16T13:16:12.951Z,98919.36
2019-04-16T13:18:58.948Z,98917.39
2019-04-16T13:21:29.125Z,98930.97
2019-04-16T13:23:59.264Z,98917.55
2019-04-16T13:26:29.378Z,98908.36
2019-04-16T13:28:59.772Z,98908.92
2019-04-16T13:31:28.257Z,98912.86
2019-04-16T13:33:56.762Z,98908.61
2019-04-16T13:36:27.878Z,98906.63
2019-04-16T13:38:57.156Z,98907.47
2019-04-16T13:41:26.997Z,98900.50
2019-04-16T13:44:09.269Z,98902.30
2019-04-16T13:46:36.771Z,98893.74
2019-04-16T13:49:10.453Z,98887.79
2019-04-16T13:51:39.020Z,98893.30
2019-04-16T13:54:09.185Z,98896.63
2019-04-16T13:56:51.505Z,98897.25
2019-04-16T13:59:30.996Z,98897.77
2019-04-16T14:02:04.704Z,98892.66
2019-04-16T14:04:36.730Z,98889.80
2019-04-16T14:07:03.812Z,98887.28
2019-04-16T14:09:32.318Z,98884.25
2019-04-16T14:12:01.048Z,98888.33
2019-04-16T14:14:29.546Z,98882.89
2019-04-16T14:17:08.252Z,98885.65
2019-04-16T14:19:28.338Z,98886.14
2019-04-16T14:21:56.847Z,98885.91
2019-04-16T14:24:25.384Z,98894.07
2019-04-16T14:26:53.877Z,98881.37
2019-04-16T14:29:24.906Z,98875.21
2019-04-16T14:31:52.428Z,98885.73
2019-04-16T14:34:34.383Z,98879.68
2019-04-16T14:37:03.067Z,98875.67
2019-04-16T14:39:35.987Z,98884.28
2019-04-16T14:42:04.942Z,98886.19
2019-04-16T14:44:43.618Z,98880.52
2019-04-16T14:47:12.216Z,98879.39
2019-04-16T14:49:40.771Z,98882.50
2019-04-16T14:52:09.334Z,98879.19
2019-04-16T14:54:51.350Z,98885.49
2019-04-16T14:57:20.037Z,98884.23
2019-04-16T15:00:06.755Z,98884.30
2019-04-16T15:02:48.891Z,98880.92
2019-04-16T15:05:22.238Z,98874.25
2019-04-16T15:07:58.615Z,98874.38
2019-04-16T15:10:31.937Z,98879.44
2019-04-16T15:13:17.235Z,98884.48
2019-04-16T15:15:47.972Z,98888.84
2019-04-16T15:18:18.106Z,98883.34
2019-04-16T15:21:03.842Z,98883.12
2019-04-16T15:23:46.820Z,98885.56
2019-04-16T15:26:17.045Z,98880.34
2019-04-16T15:28:49.884Z,98888.81
2019-04-16T15:31:36.418Z,98877.89
2019-04-16T15:34:11.231Z,98876.78
2019-04-16T15:36:41.450Z,98873.25
2019-04-16T15:39:11.655Z,98883.05
2019-04-16T15:41:47.737Z,98887.42
2019-04-16T15:44:23.580Z,98877.03
2019-04-16T15:46:52.532Z,98882.42
2019-04-16T15:49:39.115Z,98879.11
2019-04-16T15:52:25.866Z,98881.15
2019-04-16T15:55:08.052Z,98883.25
2019-04-16T15:57:41.124Z,98879.15
2019-04-16T16:00:14.733Z,98875.16
2019-04-16T16:02:57.164Z,98879.39
2019-04-16T16:05:33.457Z,98878.11
2019-04-16T16:08:20.142Z,98892.88
2019-04-16T16:10:52.979Z,98886.87
2019-04-16T16:13:22.852Z,98884.19
2019-04-16T16:15:51.720Z,98887.78
2019-04-16T16:18:20.482Z,98889.94
2019-04-16T16:20:49.003Z,98893.70
2019-04-16T16:23:17.558Z,98887.36
2019-04-16T16:25:46.077Z,98885.79
2019-04-16T16:28:14.599Z,98891.44
2019-04-16T16:30:43.243Z,98889.75
2019-04-16T16:33:11.799Z,98889.80
2019-04-16T16:35:40.301Z,98894.75
2019-04-16T16:38:11.134Z,98897.17
2019-04-16T16:40:39.073Z,98901.24
2019-04-16T16:43:08.735Z,98894.48
2019-04-16T16:45:54.512Z,98899.10
2019-04-16T16:48:24.314Z,98901.84
2019-04-16T16:50:52.810Z,98909.48
2019-04-16T16:53:31.922Z,98904.57
2019-04-16T16:56:02.346Z,98905.56
2019-04-16T16:58:35.394Z,98906.76
2019-04-16T17:01:13.902Z,98909.28
2019-04-16T17:03:43.570Z,98908.98
2019-04-16T17:06:13.880Z,98912.83
2019-04-16T17:08:42.424Z,98915.36
2019-04-16T17:11:16.605Z,98912.81
2019-04-16T17:13:41.185Z,98910.82
2019-04-16T17:16:13.303Z,98915.76
2019-04-16T17:18:39.972Z,98913.34
2019-04-16T17:21:08.486Z,98910.67
2019-04-16T17:23:36.984Z,98909.77
2019-04-16T17:26:05.525Z,98911.77
2019-04-16T17:28:34.020Z,98912.83
2019-04-16T17:31:02.585Z,98914.23
2019-04-16T17:33:31.126Z,98917.34
2019-04-16T17:35:59.699Z,98916.28
2019-04-16T17:38:28.296Z,98921.09
2019-04-16T17:40:59.867Z,98923.94
2019-04-16T17:43:33.102Z,98919.54
2019-04-16T17:48:58.281Z,98929.77
2019-04-16T17:51:28.417Z,98922.98
2019-04-16T17:54:04.675Z,98927.17
2019-04-16T17:56:43.444Z,98932.50
2019-04-16T17:59:16.699Z,98938.67
2019-04-16T18:02:02.767Z,98942.19
2019-04-16T18:04:32.938Z,98943.55
2019-04-16T18:07:06.067Z,98942.07
2019-04-16T18:09:45.150Z,98950.59
2019-04-16T18:12:19.806Z,98959.65
2019-04-16T18:14:58.703Z,98963.11
2019-04-16T18:17:47.319Z,98968.66
2019-04-16T18:20:20.940Z,98977.43
2019-04-16T18:23:00.077Z,98969.41
2019-04-16T18:25:30.252Z,98977.95
2019-04-16T18:28:05.415Z,98976.61
2019-04-16T18:30:46.303Z,98977.14
2019-04-16T18:33:22.498Z,98983.81
2019-04-16T18:36:07.986Z,98985.36
2019-04-16T18:39:03.209Z,98993.48
2019-04-16T18:41:30.910Z,98997.38
2019-04-16T18:44:09.816Z,98986.58
2019-04-16T18:46:42.517Z,98993.16
2019-04-16T18:49:14.400Z,99001.20
2019-04-16T18:51:42.893Z,99004.48
2019-04-16T18:54:11.407Z,99004.48
2019-04-16T18:56:39.904Z,99001.02
2019-04-16T18:59:08.568Z,99003.70
2019-04-16T19:01:38.695Z,99007.91
2019-04-16T19:04:07.221Z,99008.41
2019-04-16T19:06:35.968Z,99018.73
2019-04-16T19:09:06.700Z,99013.62
2019-04-16T19:11:35.306Z,99014.96
2019-04-16T19:14:03.949Z,99019.29
2019-04-16T19:16:32.483Z,99025.98
2019-04-16T19:19:01.024Z,99014.56
2019-04-16T19:21:29.589Z,99020.81
2019-04-16T19:24:02.851Z,99023.08
2019-04-16T19:26:31.497Z,99023.41
2019-04-16T19:29:00.086Z,99013.49
2019-04-16T19:31:28.579Z,99022.09
2019-04-16T19:33:57.107Z,99023.05
2019-04-16T19:36:27.482Z,99022.80
2019-04-16T19:38:55.953Z,99020.86
2019-04-16T19:41:24.733Z,99027.49
2019-04-16T19:43:53.744Z,99034.86
2019-04-16T19:46:22.325Z,99029.90
2019-04-16T19:48:51.157Z,99028.30
2019-04-16T19:51:19.951Z,99034.09
2019-04-16T19:53:48.671Z,99026.24
2019-04-16T19:56:18.505Z,99030.66
2019-04-16T19:58:48.143Z,99034.64
2019-04-16T20:01:16.770Z,99035.13
2019-04-16T20:03:47.989Z,99037.09
2019-04-16T20:06:15.900Z,99039.77
2019-04-16T20:08:44.436Z,99046.61
2019-04-16T20:11:12.940Z,99045.21
2019-04-16T20:13:41.476Z,99041.42
2019-04-16T20:16:09.998Z,99038.21
2019-04-16T20:18:50.310Z,99038.29
2019-04-16T20:21:08.743Z,99044.17
2019-04-16T20:23:37.303Z,99046.80
2019-04-16T20:26:05.974Z,99045.25
2019-04-16T20:28:34.531Z,99040.11
2019-04-16T20:31:04.287Z,99044.74
2019-04-16T20:33:33.342Z,99051.45
2019-04-16T20:36:01.922Z,99041.14
2019-04-16T20:38:30.392Z,99052.64
2019-04-16T20:40:58.973Z,99060.47
2019-04-16T20:43:27.441Z,99052.91
2019-04-16T20:45:55.927Z,99065.31
2019-04-16T20:48:24.396Z,99066.03
2019-04-16T20:50:56.634Z,99072.95
2019-04-16T20:53:23.100Z,99064.42
2019-04-16T20:55:51.685Z,99061.97
2019-04-16T20:58:20.158Z,99072.04
2019-04-16T21:00:51.287Z,99068.77
2019-04-16T21:03:22.555Z,99074.73
2019-04-16T21:05:58.022Z,99067.58
2019-04-16T21:08:24.450Z,99069.88
2019-04-16T21:10:50.487Z,99075.42
2019-04-16T21:13:18.999Z,99076.78
2019-04-16T21:15:47.457Z,99075.79
2019-04-16T21:18:15.929Z,99074.80
2019-04-16T21:20:50.840Z,99073.42
2019-04-16T21:23:16.242Z,99076.53
2019-04-16T21:25:45.991Z,99076.04
2019-04-16T21:28:16.585Z,99074.46
2019-04-16T21:30:45.852Z,99078.25
2019-04-16T21:33:31.137Z,99084.31
2019-04-16T21:36:04.818Z,99081.89
2019-04-16T21:38:42.232Z,99087.02
2019-04-16T21:41:11.342Z,99087.89
2019-04-16T21:43:40.415Z,99089.27
2019-04-16T21:46:09.140Z,99087.26
2019-04-16T21:48:37.629Z,99084.69
2019-04-16T21:51:06.110Z,99079.09
2019-04-16T21:53:34.591Z,99085.34
2019-04-16T21:56:06.405Z,99085.20
2019-04-16T21:58:33.342Z,99088.84
2019-04-16T22:01:05.138Z,99074.58
2019-04-16T22:03:35.547Z,99087.16
2019-04-16T22:06:04.183Z,99076.05
2019-04-16T22:08:32.595Z,99078.14
2019-04-16T22:11:01.097Z,99081.78
2019-04-16T22:13:29.565Z,99080.69
2019-04-16T22:15:58.733Z,99077.57
2019-04-16T22:18:27.408Z,99076.66
2019-04-16T22:20:56.113Z,99078.21
2019-04-16T22:23:24.534Z,99072.23
2019-04-16T22:25:53.009Z,99076.39
2019-04-16T22:28:21.507Z,99075.35
2019-04-16T22:30:51.479Z,99085.75
2019-04-16T22:33:20.303Z,99078.89
2019-04-16T22:35:48.773Z,99074.67
2019-04-16T22:38:17.263Z,99083.01
2019-04-16T22:40:51.630Z,99086.83
2019-04-16T22:43:39.585Z,99079.79
2019-04-16T22:46:10.388Z,99078.68
2019-04-16T22:48:40.544Z,99084.50
2019-04-16T22:51:10.016Z,99080.01
2019-04-16T22:53:39.208Z,99080.09
2019-04-16T22:56:07.695Z,99075.08
2019-04-16T22:58:48.806Z,99076.13
2019-04-16T23:01:19.557Z,99075.56
2019-04-16T23:03:49.744Z,99077.69
2019-04-16T23:06:18.360Z,99076.66
2019-04-16T23:08:46.827Z,99081.30
2019-04-16T23:11:15.413Z,99079.28
2019-04-16T23:13:43.876Z,99079.77
2019-04-16T23:16:12.384Z,99082.56
2019-04-16T23:18:40.875Z,99078.92
2019-04-16T23:21:11.339Z,99077.83
2019-04-16T23:23:39.541Z,99079.08
2019-04-16T23:26:08.046Z,99079.15
2019-04-16T23:28:36.560Z,99080.73
2019-04-16T23:31:05.159Z,99077.98
2019-04-16T23:33:33.644Z,99078.54
2019-04-16T23:36:02.323Z,99080.16
2019-04-16T23:38:31.573Z,99081.05
2019-04-16T23:41:00.946Z,99077.66
2019-04-16T23:43:33.849Z,99076.61
2019-04-16T23:46:20.263Z,99075.84
2019-04-16T23:48:53.374Z,99072.82
2019-04-16T23:51:29.729Z,99074.11
2019-04-16T23:53:59.880Z,99074.47
2019-04-16T23:56:32.881Z,99070.33
2019-04-16T23:59:05.742Z,99075.85
